Time;durP1;ratioP1;P1;durP2;ratioP2;P2;SDS_P1;SDS_P2;PMS_P1;PMS_P2;Temp;Humidity;BMP_temperature;BMP_pressure;BME280_temperature;BME280_humidity;BME280_pressure;Samples;Min_cycle;Max_cycle;Signal;HPM_P1;HPM_P2
2022/01/26 00:00:56;;;;;;;25.33;13.57;;;1.40;99.90;;;;;;5098015;28;20457;-49
2022/01/26 00:06:12;;;;;;;24.30;13.70;;;1.60;99.90;;;;;;5097524;28;20517;-47
2022/01/26 00:08:39;;;;;;;25.42;14.35;;;1.60;99.90;;;;;;5096378;28;20426;-48
2022/01/26 00:11:08;;;;;;;27.20;14.77;;;1.60;99.90;;;;;;5096144;28;20479;-51
2022/01/26 00:13:35;;;;;;;24.85;14.02;;;1.50;99.90;;;;;;5095961;28;20418;-48
2022/01/26 00:16:04;;;;;;;24.60;14.63;;;1.50;99.90;;;;;;5096111;28;20737;-47
2022/01/26 00:18:35;;;;;;;23.92;14.30;;;1.50;99.90;;;;;;5096231;28;20418;-48
2022/01/26 00:21:08;;;;;;;24.30;14.90;;;1.50;99.90;;;;;;5095824;28;20422;-47
2022/01/26 00:24:02;;;;;;;21.40;13.50;;;1.60;99.90;;;;;;5095749;28;20429;-47
2022/01/26 00:26:36;;;;;;;24.83;13.70;;;1.60;99.90;;;;;;5096373;28;20527;-50
2022/01/26 00:29:10;;;;;;;24.35;13.15;;;1.70;99.90;;;;;;5096781;28;20418;-49
2022/01/26 00:39:56;;;;;;;25.45;13.68;;;1.30;99.90;;;;;;5097048;28;20477;-51
2022/01/26 00:42:27;;;;;;;21.60;12.77;;;1.50;99.90;;;;;;5096713;28;20724;-48
2022/01/26 00:44:54;;;;;;;24.92;13.57;;;1.60;99.90;;;;;;5096520;28;20444;-48
2022/01/26 00:47:21;;;;;;;21.95;13.43;;;1.60;99.90;;;;;;5096120;28;20434;-50
2022/01/26 00:49:49;;;;;;;26.02;15.40;;;1.70;99.90;;;;;;5095698;28;20416;-47
2022/01/26 00:52:26;;;;;;;29.05;15.15;;;1.80;99.90;;;;;;5096112;28;20433;-47
2022/01/26 00:54:54;;;;;;;22.83;13.88;;;1.80;99.90;;;;;;5096573;28;20457;-51
2022/01/26 00:57:21;;;;;;;27.50;14.53;;;1.90;99.90;;;;;;5096986;28;20876;-52
2022/01/26 00:59:50;;;;;;;29.55;14.88;;;1.70;99.90;;;;;;5096707;28;20432;-50
2022/01/26 01:02:17;;;;;;;27.20;14.82;;;1.70;99.90;;;;;;5096498;28;20478;-49
2022/01/26 01:04:43;;;;;;;24.08;13.95;;;1.50;99.90;;;;;;5096576;28;20458;-46
2022/01/26 01:07:17;;;;;;;26.15;15.05;;;1.60;99.90;;;;;;5096616;28;20733;-48
2022/01/26 01:09:44;;;;;;;28.42;15.65;;;1.40;99.90;;;;;;5096400;28;20418;-50
2022/01/26 01:12:11;;;;;;;29.73;15.77;;;1.50;99.90;;;;;;5096361;28;20425;-51
2022/01/26 01:14:40;;;;;;;28.08;14.75;;;1.40;99.90;;;;;;5096447;28;20446;-49
2022/01/26 01:17:11;;;;;;;25.90;15.47;;;1.40;99.90;;;;;;5096540;28;20845;-50
2022/01/26 01:19:43;;;;;;;28.65;15.23;;;1.50;99.90;;;;;;5096371;28;20446;-48
2022/01/26 01:22:41;;;;;;;25.77;14.15;;;1.50;99.90;;;;;;5096132;28;20429;-51
2022/01/26 01:28:15;;;;;;;28.57;15.17;;;1.40;99.90;;;;;;5079312;28;20829;-47
2022/01/26 01:30:45;;;;;;;25.08;14.35;;;1.50;99.90;;;;;;5095465;28;20424;-49
2022/01/26 01:33:18;;;;;;;23.92;13.45;;;1.50;99.90;;;;;;5094979;28;20487;-48
2022/01/26 01:35:47;;;;;;;24.08;11.98;;;1.40;99.90;;;;;;5095135;28;20456;-57
2022/01/26 01:38:16;;;;;;;23.77;13.37;;;1.40;99.90;;;;;;5094462;28;20766;-51
2022/01/26 01:40:45;;;;;;;25.35;13.00;;;1.50;99.90;;;;;;5095291;28;20422;-50
2022/01/26 01:43:13;;;;;;;22.17;12.27;;;1.50;99.90;;;;;;5095529;28;20550;-49
2022/01/26 01:45:43;;;;;;;23.97;13.80;;;1.50;99.90;;;;;;5095900;28;20487;-48
2022/01/26 01:48:13;;;;;;;24.00;11.63;;;1.50;99.90;;;;;;5096246;28;20436;-49
2022/01/26 01:50:42;;;;;;;20.00;11.25;;;1.50;99.90;;;;;;5095746;28;20422;-50
2022/01/26 01:53:09;;;;;;;24.33;13.02;;;1.40;99.90;;;;;;5095836;28;20450;-51
2022/01/26 01:55:39;;;;;;;21.43;12.73;;;1.40;99.90;;;;;;5096051;28;20417;-49
2022/01/26 01:58:06;;;;;;;21.33;11.00;;;1.30;99.90;;;;;;5095802;28;20434;-48
2022/01/26 02:00:34;;;;;;;19.17;11.43;;;1.40;99.90;;;;;;5095776;28;20455;-49
2022/01/26 02:03:01;;;;;;;22.03;12.40;;;1.50;99.90;;;;;;5095648;28;20484;-51
2022/01/26 02:05:28;;;;;;;18.27;11.45;;;1.60;99.90;;;;;;5095584;28;20438;-51
2022/01/26 02:07:56;;;;;;;22.70;11.90;;;1.50;99.90;;;;;;5095518;28;20425;-49
2022/01/26 02:10:24;;;;;;;22.00;11.50;;;1.50;99.90;;;;;;5095381;28;20778;-51
2022/01/26 02:12:56;;;;;;;18.88;12.20;;;1.30;99.90;;;;;;5095550;28;20436;-47
2022/01/26 02:15:27;;;;;;;19.52;10.85;;;1.10;99.90;;;;;;5095502;28;20482;-48
2022/01/26 02:18:15;;;;;;;19.58;11.05;;;1.20;99.90;;;;;;5095476;28;20918;-49
2022/01/26 02:21:05;;;;;;;19.08;10.15;;;1.30;99.90;;;;;;5095105;28;20414;-46
2022/01/26 02:51:22;;;;;;;15.07;9.07;;;0.70;99.90;;;;;;5094049;28;20863;-47
2022/01/26 02:56:46;;;;;;;14.23;8.45;;;0.70;99.90;;;;;;5087918;28;20402;-50
2022/01/26 02:59:35;;;;;;;13.73;8.02;;;0.90;99.90;;;;;;5095098;28;20421;-50
2022/01/26 03:02:05;;;;;;;15.75;8.80;;;1.10;99.90;;;;;;5099675;28;20413;-48
2022/01/26 03:04:39;;;;;;;13.73;8.00;;;1.10;99.90;;;;;;5099122;28;20421;-51
2022/01/26 03:07:12;;;;;;;15.43;8.35;;;1.10;99.90;;;;;;5098685;28;20413;-48
2022/01/26 03:09:45;;;;;;;13.82;8.20;;;1.00;99.90;;;;;;5098546;28;20465;-49
2022/01/26 03:12:17;;;;;;;16.23;8.40;;;0.70;99.90;;;;;;5097997;28;20425;-48
2022/01/26 03:14:49;;;;;;;14.55;9.10;;;0.60;99.90;;;;;;5099235;28;20421;-47
2022/01/26 03:17:30;;;;;;;12.10;7.70;;;0.50;99.90;;;;;;5098991;28;20418;-48
2022/01/26 03:20:04;;;;;;;14.73;7.95;;;0.60;99.90;;;;;;5097330;28;20498;-47
2022/01/26 03:28:22;;;;;;;13.25;7.10;;;0.20;99.90;;;;;;5096585;28;20417;-48
2022/01/26 03:31:17;;;;;;;15.45;7.13;;;0.20;99.90;;;;;;5096603;28;20413;-47
2022/01/26 03:33:55;;;;;;;12.25;6.88;;;0.30;99.90;;;;;;5097537;28;20429;-49
2022/01/26 03:36:26;;;;;;;16.02;6.00;;;0.50;99.90;;;;;;5098914;28;20896;-48
2022/01/26 03:39:00;;;;;;;13.90;6.75;;;0.30;99.90;;;;;;5098769;28;20433;-48
2022/01/26 03:41:37;;;;;;;14.35;6.50;;;0.40;99.90;;;;;;5098352;28;20437;-51
2022/01/26 03:44:05;;;;;;;13.35;7.07;;;0.50;99.90;;;;;;5098015;28;20438;-47
2022/01/26 03:46:32;;;;;;;14.63;6.90;;;0.50;99.90;;;;;;5098252;28;20864;-46
2022/01/26 03:49:00;;;;;;;11.82;6.97;;;0.60;99.90;;;;;;5098201;28;20466;-47
2022/01/26 03:51:27;;;;;;;13.60;7.38;;;0.60;99.90;;;;;;5098247;28;20513;-48
2022/01/26 03:53:54;;;;;;;13.90;7.07;;;0.50;99.90;;;;;;5098139;28;20475;-48
2022/01/26 03:56:21;;;;;;;13.65;7.07;;;0.40;99.90;;;;;;5098252;28;20517;-46
2022/01/26 03:58:49;;;;;;;13.27;7.78;;;0.50;99.90;;;;;;5097095;28;20438;-46
2022/01/26 04:01:17;;;;;;;18.60;8.00;;;0.50;99.90;;;;;;5098014;28;20523;-48
2022/01/26 04:03:43;;;;;;;13.88;6.88;;;0.50;99.90;;;;;;5097469;28;20474;-48
2022/01/26 04:06:10;;;;;;;13.80;7.80;;;0.70;99.90;;;;;;5097752;28;20430;-48
2022/01/26 04:08:40;;;;;;;18.13;8.07;;;0.70;99.90;;;;;;5098000;28;20507;-46
2022/01/26 04:11:23;;;;;;;16.27;7.63;;;0.60;99.90;;;;;;5095103;28;20422;-47
2022/01/26 04:13:52;;;;;;;15.93;8.13;;;0.50;99.90;;;;;;5095910;28;20789;-46
2022/01/26 04:16:20;;;;;;;16.30;7.40;;;0.50;99.90;;;;;;5096180;28;20524;-51
2022/01/26 04:18:47;;;;;;;17.20;7.82;;;0.50;99.90;;;;;;5095908;28;20487;-50
2022/01/26 04:21:22;;;;;;;15.93;8.57;;;0.40;99.90;;;;;;5095908;28;20943;-50
2022/01/26 04:23:53;;;;;;;18.07;8.40;;;0.60;99.90;;;;;;5095775;28;20440;-47
2022/01/26 04:26:26;;;;;;;17.55;8.18;;;0.90;99.90;;;;;;5097446;28;20422;-48
2022/01/26 04:28:59;;;;;;;16.10;8.50;;;1.00;99.90;;;;;;5097282;28;20513;-48
2022/01/26 04:31:26;;;;;;;16.97;8.60;;;1.20;99.90;;;;;;5097419;28;20434;-46
2022/01/26 04:33:53;;;;;;;19.73;8.82;;;1.20;99.90;;;;;;5097218;28;20795;-48
2022/01/26 04:36:25;;;;;;;18.52;9.15;;;1.20;99.90;;;;;;5096130;28;20469;-52
2022/01/26 04:38:56;;;;;;;20.60;9.00;;;0.90;99.90;;;;;;5095780;28;20509;-48
2022/01/26 04:41:32;;;;;;;21.50;9.77;;;0.70;99.90;;;;;;5095602;28;20826;-50
2022/01/26 04:44:06;;;;;;;21.50;9.18;;;0.60;99.90;;;;;;5095562;28;20434;-47
2022/01/26 04:46:33;;;;;;;21.20;10.52;;;0.60;99.90;;;;;;5095659;28;20429;-49
2022/01/26 04:49:00;;;;;;;19.65;10.10;;;0.50;99.90;;;;;;5095549;28;20446;-46
2022/01/26 04:51:27;;;;;;;20.60;10.10;;;0.40;99.90;;;;;;5096162;28;20848;-47
2022/01/26 04:53:54;;;;;;;21.48;9.45;;;0.40;99.90;;;;;;5096311;28;20786;-47
2022/01/26 04:56:21;;;;;;;20.52;9.10;;;0.40;99.90;;;;;;5096210;28;20449;-48
2022/01/26 04:58:48;;;;;;;20.58;9.63;;;0.50;99.90;;;;;;5095847;28;20462;-48
2022/01/26 05:01:16;;;;;;;20.87;9.40;;;0.50;99.90;;;;;;5096515;28;20877;-50
2022/01/26 05:03:43;;;;;;;21.77;11.15;;;0.30;99.90;;;;;;5096526;28;20803;-51
2022/01/26 05:06:10;;;;;;;19.30;9.75;;;0.20;99.90;;;;;;5096516;28;20520;-53
2022/01/26 05:08:37;;;;;;;22.08;10.15;;;0.10;99.90;;;;;;5096386;28;20457;-53
2022/01/26 05:11:05;;;;;;;24.88;11.18;;;0.10;99.90;;;;;;5096545;28;20478;-51
2022/01/26 05:13:32;;;;;;;21.17;10.50;;;0.20;99.90;;;;;;5096779;28;20510;-53
2022/01/26 05:15:59;;;;;;;19.23;9.38;;;0.20;99.90;;;;;;5096330;28;20492;-53
2022/01/26 05:18:29;;;;;;;20.95;10.35;;;0.10;99.90;;;;;;5096041;28;20833;-49
2022/01/26 05:20:57;;;;;;;20.23;9.93;;;0.20;99.90;;;;;;5095132;28;20515;-48
2022/01/26 05:23:24;;;;;;;18.88;8.48;;;0.20;99.90;;;;;;5096145;28;20493;-47
2022/01/26 05:25:51;;;;;;;22.00;9.73;;;0.30;99.90;;;;;;5096028;28;20466;-51
2022/01/26 05:28:18;;;;;;;22.70;9.35;;;0.30;99.90;;;;;;5095818;28;20461;-51
2022/01/26 05:30:45;;;;;;;20.80;9.23;;;0.30;99.90;;;;;;5094968;28;20892;-48
2022/01/26 05:33:12;;;;;;;19.60;8.80;;;0.30;99.90;;;;;;5092967;28;20452;-48
2022/01/26 05:35:42;;;;;;;21.02;9.23;;;0.20;99.90;;;;;;5092966;28;20793;-48
2022/01/26 05:38:09;;;;;;;21.17;10.32;;;0.10;99.90;;;;;;5092841;28;20418;-55
2022/01/26 05:40:36;;;;;;;20.50;9.00;;;0.10;99.90;;;;;;5092992;28;20752;-48
2022/01/26 05:43:03;;;;;;;25.67;9.93;;;0.30;99.90;;;;;;5093936;28;20441;-48
2022/01/26 05:45:34;;;;;;;21.13;9.77;;;0.40;99.90;;;;;;5086212;28;20433;-51
2022/01/26 05:48:03;;;;;;;19.30;9.10;;;0.40;99.90;;;;;;5095262;28;20418;-47
2022/01/26 05:50:31;;;;;;;18.73;8.35;;;0.40;99.90;;;;;;5093239;28;20430;-48
2022/01/26 05:52:59;;;;;;;20.70;9.00;;;0.60;99.90;;;;;;5093257;28;20446;-49
2022/01/26 05:55:26;;;;;;;16.85;8.25;;;0.50;99.90;;;;;;5091823;28;20421;-50
2022/01/26 05:57:53;;;;;;;19.50;9.68;;;0.40;99.90;;;;;;5092241;28;20793;-51
2022/01/26 06:00:20;;;;;;;19.95;8.55;;;0.60;99.90;;;;;;5092830;28;20476;-49
2022/01/26 06:02:47;;;;;;;20.13;9.40;;;0.70;99.90;;;;;;5091615;28;20618;-48
2022/01/26 06:05:18;;;;;;;19.75;9.18;;;0.50;99.90;;;;;;5091838;28;21521;-48
2022/01/26 06:07:48;;;;;;;19.10;8.10;;;0.40;99.90;;;;;;5093490;28;20453;-46
2022/01/26 06:10:17;;;;;;;23.02;9.82;;;0.30;99.90;;;;;;5092812;28;20755;-51
2022/01/26 06:12:44;;;;;;;20.08;9.70;;;0.40;99.90;;;;;;5093794;28;20421;-51
2022/01/26 06:15:11;;;;;;;21.92;9.68;;;0.30;99.90;;;;;;5091685;28;20712;-50
2022/01/26 06:17:38;;;;;;;21.30;10.55;;;0.20;99.90;;;;;;5093691;28;20453;-52
2022/01/26 06:20:06;;;;;;;19.23;9.70;;;0.60;99.90;;;;;;5091784;28;20587;-48
2022/01/26 06:22:33;;;;;;;19.70;10.30;;;0.70;99.90;;;;;;5093558;28;20457;-49
2022/01/26 06:25:05;;;;;;;19.52;9.48;;;0.90;99.90;;;;;;5092853;28;20461;-50
2022/01/26 06:27:34;;;;;;;17.40;8.50;;;0.80;99.90;;;;;;5091052;28;20421;-49
2022/01/26 06:30:01;;;;;;;18.13;9.15;;;0.60;99.90;;;;;;5091147;28;20434;-49
2022/01/26 06:32:30;;;;;;;24.08;9.13;;;0.40;99.90;;;;;;5090387;28;20530;-49
2022/01/26 06:34:58;;;;;;;20.73;10.43;;;0.20;99.90;;;;;;5089472;28;20885;-50
2022/01/26 06:37:25;;;;;;;21.50;11.00;;;0.20;99.90;;;;;;5089648;28;20624;-46
2022/01/26 06:39:52;;;;;;;22.33;10.38;;;0.20;99.90;;;;;;5089483;28;20849;-48
2022/01/26 06:42:24;;;;;;;18.77;9.63;;;0.10;99.90;;;;;;5092591;28;20450;-47
2022/01/26 06:45:06;;;;;;;20.10;9.48;;;0.30;99.90;;;;;;5091680;28;20518;-48
2022/01/26 06:47:51;;;;;;;18.17;9.73;;;0.50;99.90;;;;;;5090763;28;20421;-49
2022/01/26 06:50:19;;;;;;;18.70;9.07;;;0.50;99.90;;;;;;5091125;28;20418;-49
2022/01/26 06:52:46;;;;;;;19.80;9.07;;;0.30;99.90;;;;;;5090100;28;20409;-48
2022/01/26 06:55:13;;;;;;;17.15;8.63;;;0.40;99.90;;;;;;5090523;28;20728;-50
2022/01/26 06:57:40;;;;;;;18.20;9.23;;;0.30;99.90;;;;;;5090291;28;20460;-50
2022/01/26 07:00:10;;;;;;;17.85;8.50;;;0.40;99.90;;;;;;5091120;28;20429;-50
2022/01/26 07:02:39;;;;;;;18.48;9.70;;;0.30;99.90;;;;;;5091917;28;20457;-47
2022/01/26 07:05:10;;;;;;;17.55;8.88;;;0.50;99.90;;;;;;5092649;28;20433;-48
2022/01/26 07:07:37;;;;;;;19.37;9.67;;;0.60;99.90;;;;;;5093088;28;20899;-50
2022/01/26 07:10:06;;;;;;;15.23;7.32;;;0.60;99.90;;;;;;5093345;28;20449;-50
2022/01/26 07:12:33;;;;;;;15.25;7.97;;;0.60;99.90;;;;;;5092786;28;20456;-46
2022/01/26 07:23:14;;;;;;;18.80;8.40;;;1.30;99.90;;;;;;5090822;28;21000;-49
2022/01/26 07:25:41;;;;;;;14.27;7.70;;;1.30;99.90;;;;;;5090191;28;20532;-48
2022/01/26 07:28:08;;;;;;;16.00;8.60;;;1.10;99.90;;;;;;5083367;28;20458;-46
2022/01/26 07:30:36;;;;;;;17.35;7.82;;;1.00;99.90;;;;;;5091489;28;20487;-48
2022/01/26 07:33:04;;;;;;;15.15;7.57;;;1.00;99.90;;;;;;5085526;28;20821;-51
2022/01/26 07:35:31;;;;;;;15.07;6.88;;;0.80;99.90;;;;;;5088723;28;20430;-46
2022/01/26 07:38:00;;;;;;;16.70;7.82;;;1.20;99.90;;;;;;5090454;28;20521;-50
2022/01/26 07:40:28;;;;;;;13.20;6.78;;;1.60;99.90;;;;;;5092348;28;20440;-46
2022/01/26 07:42:55;;;;;;;14.85;7.57;;;1.70;99.90;;;;;;5092191;28;20457;-50
2022/01/26 07:45:22;;;;;;;15.10;7.03;;;2.10;99.90;;;;;;5091868;28;20960;-48
2022/01/26 07:47:52;;;;;;;15.82;7.40;;;2.30;99.90;;;;;;5094635;28;20472;-49
2022/01/26 07:50:21;;;;;;;14.02;7.05;;;2.30;99.90;;;;;;5087864;28;20883;-48
2022/01/26 07:52:48;;;;;;;16.45;7.55;;;1.80;99.90;;;;;;5096687;28;20425;-49
2022/01/26 07:55:19;;;;;;;13.93;8.10;;;2.00;99.90;;;;;;5094100;28;20458;-48
2022/01/26 07:57:48;;;;;;;14.32;7.50;;;2.20;99.90;;;;;;5095741;28;20440;-49
2022/01/26 08:00:17;;;;;;;16.20;8.60;;;1.90;99.90;;;;;;5092556;28;20426;-47
2022/01/26 08:02:44;;;;;;;13.85;6.97;;;2.10;99.90;;;;;;5093886;28;20499;-49
2022/01/26 08:05:12;;;;;;;16.17;8.02;;;2.40;99.90;;;;;;5094040;28;20503;-49
2022/01/26 08:07:40;;;;;;;15.80;8.48;;;1.90;99.90;;;;;;5093528;28;20461;-50
2022/01/26 08:10:09;;;;;;;14.97;8.00;;;1.70;99.90;;;;;;5096104;28;20458;-48
2022/01/26 08:12:38;;;;;;;15.53;8.83;;;1.30;99.90;;;;;;5092669;28;20511;-45
2022/01/26 08:15:07;;;;;;;16.35;9.35;;;1.20;99.90;;;;;;5094824;28;20418;-48
2022/01/26 08:17:34;;;;;;;14.98;8.25;;;1.20;99.90;;;;;;5094158;28;20430;-49
2022/01/26 08:20:04;;;;;;;15.52;8.32;;;1.40;99.90;;;;;;5093963;28;20430;-47
2022/01/26 08:22:31;;;;;;;17.52;8.15;;;1.30;99.90;;;;;;5093160;28;20441;-47
2022/01/26 08:24:59;;;;;;;17.63;8.88;;;2.00;99.90;;;;;;5092329;28;20483;-49
2022/01/26 08:27:30;;;;;;;18.47;9.37;;;1.90;99.90;;;;;;5093312;28;20926;-51
2022/01/26 08:30:05;;;;;;;19.20;9.32;;;1.60;99.90;;;;;;5096126;28;20822;-46
2022/01/26 08:32:32;;;;;;;14.30;7.55;;;1.60;99.90;;;;;;5096038;28;20448;-51
2022/01/26 08:34:59;;;;;;;14.30;8.45;;;1.70;99.90;;;;;;5095524;28;20453;-48
2022/01/26 08:37:26;;;;;;;12.82;7.10;;;2.20;99.90;;;;;;5094902;28;20723;-49
2022/01/26 08:39:53;;;;;;;11.98;6.40;;;2.60;99.90;;;;;;5094002;28;20511;-49
2022/01/26 08:42:21;;;;;;;15.70;7.00;;;2.90;99.90;;;;;;5093469;28;20471;-48
2022/01/26 08:44:48;;;;;;;18.48;8.50;;;3.00;99.90;;;;;;5093676;28;20487;-47
2022/01/26 08:47:15;;;;;;;15.07;7.80;;;2.50;99.90;;;;;;5095709;28;20413;-48
2022/01/26 08:49:42;;;;;;;16.85;8.23;;;2.00;99.90;;;;;;5094372;28;20811;-49
2022/01/26 08:52:09;;;;;;;14.98;7.80;;;2.20;99.90;;;;;;5094422;28;20460;-52
2022/01/26 08:54:36;;;;;;;18.92;9.10;;;2.40;99.90;;;;;;5094192;28;20453;-46
2022/01/26 08:57:03;;;;;;;14.50;7.53;;;2.30;99.90;;;;;;5087195;28;20475;-49
2022/01/26 08:59:34;;;;;;;18.50;8.40;;;2.30;99.90;;;;;;5081597;28;20574;-46
2022/01/26 09:02:01;;;;;;;16.55;8.02;;;2.20;99.90;;;;;;5085848;28;20447;-47
2022/01/26 09:04:28;;;;;;;17.38;9.60;;;1.80;99.90;;;;;;5086024;28;20513;-47
2022/01/26 09:06:57;;;;;;;22.35;9.70;;;1.30;99.90;;;;;;5092907;28;20485;-47
2022/01/26 09:09:26;;;;;;;19.75;8.75;;;1.30;99.90;;;;;;5092942;28;20437;-49
2022/01/26 09:11:58;;;;;;;16.98;9.65;;;1.20;99.90;;;;;;5093084;28;20513;-45
2022/01/26 09:14:28;;;;;;;17.75;8.93;;;1.40;99.90;;;;;;5093528;28;20506;-49
2022/01/26 09:16:56;;;;;;;17.02;8.85;;;1.30;99.90;;;;;;5093016;28;20476;-46
2022/01/26 09:19:28;;;;;;;15.43;8.85;;;1.60;99.90;;;;;;5091581;28;20856;-49
2022/01/26 09:21:55;;;;;;;21.52;9.90;;;1.40;99.90;;;;;;5090792;28;20749;-48
2022/01/26 09:24:22;;;;;;;20.15;9.70;;;1.50;99.90;;;;;;5091743;28;20518;-45
2022/01/26 09:26:49;;;;;;;18.92;8.57;;;2.10;99.90;;;;;;5090448;28;20512;-46
2022/01/26 09:29:16;;;;;;;19.77;8.70;;;2.20;99.90;;;;;;5093549;28;20418;-48
2022/01/26 09:31:47;;;;;;;18.17;8.85;;;2.00;99.90;;;;;;5090874;28;20429;-50
2022/01/26 09:34:16;;;;;;;16.77;7.75;;;1.90;99.90;;;;;;5091941;28;20651;-45
2022/01/26 09:36:43;;;;;;;17.80;8.38;;;1.80;99.90;;;;;;5088675;28;20896;-45
2022/01/26 09:39:10;;;;;;;15.50;7.70;;;1.90;99.90;;;;;;5091509;28;20515;-47
2022/01/26 09:41:40;;;;;;;14.13;7.47;;;1.60;99.90;;;;;;5093880;28;20453;-48
2022/01/26 09:44:08;;;;;;;16.23;6.90;;;1.40;99.90;;;;;;5076194;28;20524;-51
2022/01/26 09:46:35;;;;;;;13.83;6.57;;;1.90;99.90;;;;;;5094284;28;20508;-48
2022/01/26 09:49:02;;;;;;;15.65;7.70;;;2.40;99.90;;;;;;5093775;28;20429;-51
2022/01/26 09:51:33;;;;;;;16.48;8.20;;;2.00;99.90;;;;;;5093517;28;20422;-48
2022/01/26 09:54:15;;;;;;;16.52;6.93;;;1.90;99.90;;;;;;5086600;28;20426;-50
2022/01/26 09:56:43;;;;;;;16.23;8.85;;;1.50;99.90;;;;;;5094317;28;20410;-47
2022/01/26 09:59:11;;;;;;;16.00;8.30;;;1.40;99.90;;;;;;5092526;28;20430;-48
2022/01/26 10:01:42;;;;;;;19.98;9.05;;;1.40;99.90;;;;;;5093170;28;20813;-46
2022/01/26 10:04:20;;;;;;;21.60;9.98;;;1.30;99.90;;;;;;5093486;28;20457;-48
2022/01/26 10:07:00;;;;;;;20.40;9.38;;;1.10;99.90;;;;;;5090156;28;20430;-47
2022/01/26 10:09:44;;;;;;;21.55;9.85;;;1.00;99.90;;;;;;5090700;28;20883;-47
2022/01/26 10:17:42;;;;;;;21.08;8.98;;;0.90;99.90;;;;;;5090838;28;20428;-51
2022/01/26 10:20:15;;;;;;;19.25;9.18;;;0.90;99.90;;;;;;5089771;28;20843;-47
2022/01/26 10:22:44;;;;;;;18.02;8.50;;;0.90;99.90;;;;;;5091107;28;20862;-49
2022/01/26 10:25:13;;;;;;;17.25;8.30;;;0.90;99.90;;;;;;5085903;28;20465;-47
2022/01/26 10:27:42;;;;;;;15.65;7.60;;;1.00;99.90;;;;;;5088695;28;20519;-50
2022/01/26 10:30:13;;;;;;;18.20;7.65;;;1.00;99.90;;;;;;5091580;28;20483;-45
2022/01/26 10:32:41;;;;;;;16.15;7.82;;;1.00;99.90;;;;;;5090642;28;20494;-46
2022/01/26 10:35:10;;;;;;;16.95;7.88;;;1.00;99.90;;;;;;5090703;28;20759;-46
2022/01/26 10:37:41;;;;;;;18.33;8.07;;;1.20;99.90;;;;;;5089335;28;20457;-48
2022/01/26 10:40:17;;;;;;;15.48;7.03;;;1.40;99.90;;;;;;5075644;28;20433;-47
2022/01/26 10:43:01;;;;;;;13.05;6.82;;;1.40;99.90;;;;;;5091965;28;20430;-49
2022/01/26 10:45:35;;;;;;;16.52;7.43;;;1.30;99.90;;;;;;5089757;28;20477;-45
2022/01/26 10:48:19;;;;;;;18.40;8.35;;;1.10;99.90;;;;;;5089342;28;20501;-45
2022/01/26 10:51:20;;;;;;;14.05;7.60;;;1.20;99.90;;;;;;5090706;28;20437;-45
2022/01/26 10:53:50;;;;;;;14.52;7.28;;;1.40;99.90;;;;;;5090070;28;20414;-48
2022/01/26 10:56:19;;;;;;;15.05;6.90;;;1.60;99.90;;;;;;5090781;28;20441;-48
2022/01/26 10:58:46;;;;;;;15.57;7.25;;;1.40;99.90;;;;;;5088005;28;20430;-47
2022/01/26 11:01:13;;;;;;;17.15;7.50;;;1.40;99.90;;;;;;5089358;28;20495;-55
2022/01/26 11:03:40;;;;;;;14.15;7.75;;;1.30;99.90;;;;;;5088867;28;20896;-53
2022/01/26 11:06:09;;;;;;;13.90;6.38;;;1.20;99.90;;;;;;5091113;28;20426;-54
2022/01/26 11:08:39;;;;;;;15.68;6.13;;;1.80;99.90;;;;;;5093568;28;20891;-56
2022/01/26 11:11:07;;;;;;;16.88;8.00;;;2.30;99.90;;;;;;5091651;28;20745;-56
2022/01/26 11:13:39;;;;;;;15.65;8.15;;;2.30;99.90;;;;;;5091592;28;20796;-53
2022/01/26 11:16:10;;;;;;;13.85;7.40;;;2.50;99.90;;;;;;5091122;28;20487;-55
2022/01/26 11:18:51;;;;;;;17.25;9.00;;;2.80;99.90;;;;;;5090297;28;20446;-54
2022/01/26 11:21:34;;;;;;;14.55;6.80;;;2.50;99.90;;;;;;5092656;28;20433;-54
2022/01/26 11:24:06;;;;;;;15.37;7.30;;;2.60;99.90;;;;;;5094971;28;20421;-55
2022/01/26 11:26:34;;;;;;;15.95;8.35;;;2.90;99.90;;;;;;5092836;28;20430;-54
2022/01/26 11:29:13;;;;;;;16.10;7.53;;;3.10;99.90;;;;;;5093723;28;20520;-53
2022/01/26 11:31:43;;;;;;;14.18;6.78;;;3.50;99.90;;;;;;5093229;28;20657;-53
2022/01/26 11:34:11;;;;;;;14.40;7.70;;;4.00;99.90;;;;;;5093598;28;20508;-56
2022/01/26 11:36:42;;;;;;;17.08;7.40;;;4.40;99.90;;;;;;5094968;28;20463;-55
2022/01/26 11:42:30;;;;;;;15.48;7.05;;;4.40;99.90;;;;;;5094471;28;20441;-55
2022/01/26 11:45:08;;;;;;;14.77;6.70;;;4.30;99.90;;;;;;5095749;28;20425;-56
2022/01/26 11:47:39;;;;;;;17.05;9.35;;;4.50;99.90;;;;;;5094375;28;20433;-54
2022/01/26 11:50:10;;;;;;;16.70;8.05;;;4.20;99.90;;;;;;5094968;28;20822;-56
2022/01/26 11:52:39;;;;;;;15.95;8.18;;;4.30;99.90;;;;;;5093874;28;20467;-53
2022/01/26 11:55:20;;;;;;;14.70;6.72;;;3.90;99.90;;;;;;5094713;28;20503;-56
2022/01/26 11:57:51;;;;;;;15.90;8.27;;;4.00;99.90;;;;;;5094196;28;20414;-56
2022/01/26 12:00:36;;;;;;;19.35;7.97;;;4.10;99.90;;;;;;5095650;28;20438;-55
2022/01/26 12:03:09;;;;;;;13.95;7.82;;;4.10;99.90;;;;;;5095194;28;20461;-55
2022/01/26 12:05:48;;;;;;;15.48;6.97;;;4.00;99.90;;;;;;5093606;28;20433;-53
2022/01/26 12:08:27;;;;;;;15.43;7.13;;;3.60;99.90;;;;;;5094633;28;20495;-55
2022/01/26 12:10:53;;;;;;;14.47;6.87;;;3.20;99.90;;;;;;5092465;28;20481;-55
2022/01/26 12:13:25;;;;;;;14.73;6.57;;;3.40;99.90;;;;;;5094320;28;20849;-52
2022/01/26 12:15:56;;;;;;;14.43;7.32;;;3.50;99.90;;;;;;5093203;28;20430;-56
2022/01/26 12:18:31;;;;;;;16.33;7.50;;;3.70;99.90;;;;;;5092971;28;20506;-54
2022/01/26 12:35:46;;;;;;;18.03;8.03;;;2.50;99.90;;;;;;5077630;28;20865;-55
2022/01/26 12:38:23;;;;;;;14.48;6.05;;;2.50;99.90;;;;;;5075737;28;20481;-61
2022/01/26 12:41:22;;;;;;;13.80;7.45;;;3.20;99.90;;;;;;5083454;28;20437;-56
2022/01/26 12:43:53;;;;;;;14.80;6.95;;;3.40;99.90;;;;;;5091130;28;20453;-54
2022/01/26 12:46:23;;;;;;;15.07;6.60;;;3.60;99.90;;;;;;5089671;28;20434;-53
2022/01/26 12:48:54;;;;;;;17.10;7.25;;;3.90;99.90;;;;;;5089003;28;20883;-56
2022/01/26 12:51:22;;;;;;;14.40;6.40;;;3.80;99.90;;;;;;5090011;28;20872;-52
2022/01/26 12:53:53;;;;;;;13.80;6.20;;;3.50;99.90;;;;;;5087380;28;20853;-52
2022/01/26 12:56:20;;;;;;;13.00;5.45;;;3.20;99.90;;;;;;5089265;28;20468;-56
2022/01/26 12:58:50;;;;;;;18.17;6.50;;;3.70;99.90;;;;;;5075613;28;20491;-55
2022/01/26 13:01:20;;;;;;;14.05;5.85;;;4.20;99.90;;;;;;5090391;28;20861;-54
2022/01/26 13:03:49;;;;;;;15.32;7.25;;;4.50;99.90;;;;;;5086162;28;20457;-50
2022/01/26 13:06:22;;;;;;;13.77;6.77;;;4.70;99.90;;;;;;5092339;28;20468;-53
2022/01/26 13:08:52;;;;;;;12.82;6.05;;;4.60;99.90;;;;;;5091209;28;20429;-54
2022/01/26 13:11:27;;;;;;;14.55;6.68;;;4.00;99.90;;;;;;5093709;28;20469;-56
2022/01/26 13:14:32;;;;;;;15.13;6.70;;;3.50;99.90;;;;;;5093674;28;20517;-56
2022/01/26 13:17:09;;;;;;;12.75;5.53;;;3.40;99.90;;;;;;5080333;28;20524;-55
2022/01/26 13:19:54;;;;;;;13.85;6.53;;;3.90;99.90;;;;;;5089868;28;20426;-53
2022/01/26 13:22:44;;;;;;;15.48;7.20;;;4.30;99.90;;;;;;5084717;28;20436;-56
2022/01/26 13:25:22;;;;;;;12.75;6.57;;;4.00;99.90;;;;;;5087018;28;20474;-55
2022/01/26 13:28:11;;;;;;;15.40;7.13;;;3.70;99.90;;;;;;5091420;28;20430;-55
2022/01/26 13:36:30;;;;;;;15.95;6.75;;;3.60;99.90;;;;;;5090172;28;20449;-57
2022/01/26 13:39:14;;;;;;;16.63;7.13;;;3.50;99.90;;;;;;5071489;28;20784;-56
2022/01/26 13:41:48;;;;;;;15.55;7.53;;;2.90;99.90;;;;;;5072040;28;20432;-54
2022/01/26 13:47:21;;;;;;;14.10;6.35;;;2.40;99.90;;;;;;5094859;28;20655;-56
2022/01/26 13:49:57;;;;;;;14.15;7.18;;;2.20;99.90;;;;;;5093538;28;20430;-53
2022/01/26 13:58:19;;;;;;;18.92;8.30;;;2.00;99.90;;;;;;5093556;28;20912;-56
2022/01/26 14:00:55;;;;;;;17.58;7.80;;;1.90;99.90;;;;;;5092673;28;20726;-50
2022/01/26 14:03:28;;;;;;;16.08;7.63;;;1.90;99.90;;;;;;5092284;28;20896;-55
2022/01/26 14:05:55;;;;;;;13.27;5.93;;;1.90;99.90;;;;;;5093909;28;20421;-52
2022/01/26 14:08:25;;;;;;;16.13;7.25;;;2.00;99.90;;;;;;5094176;28;20426;-53
2022/01/26 14:10:53;;;;;;;11.45;5.47;;;2.20;99.90;;;;;;5094591;28;20459;-56
2022/01/26 14:13:23;;;;;;;10.95;5.55;;;2.20;99.90;;;;;;5076226;28;20817;-57
2022/01/26 14:15:53;;;;;;;15.30;5.93;;;2.30;99.90;;;;;;5093962;28;20429;-55
2022/01/26 14:24:12;;;;;;;11.70;4.93;;;2.10;99.90;;;;;;5091038;28;20414;-54
2022/01/26 14:26:44;;;;;;;12.32;5.00;;;2.10;99.90;;;;;;5091073;28;20430;-55
2022/01/26 14:29:20;;;;;;;11.88;4.45;;;1.90;99.90;;;;;;5092838;28;20422;-54
2022/01/26 14:32:09;;;;;;;11.65;4.32;;;1.60;99.90;;;;;;5093020;28;20788;-53
2022/01/26 14:51:25;;;;;;;13.48;6.38;;;1.70;99.90;;;;;;5093438;28;20711;-54
2022/01/26 15:19:42;;;;;;;13.85;5.93;;;1.50;99.90;;;;;;5172583;27;20726;-51
2022/01/26 15:30:31;;;;;;;11.20;4.00;;;2.60;99.90;;;;;;5171792;27;20878;-54
2022/01/26 15:33:22;;;;;;;11.38;5.25;;;2.70;99.90;;;;;;5162362;27;20438;-53
2022/01/26 15:40:01;;;;;;;10.48;4.70;;;2.70;99.90;;;;;;5150440;27;20421;-52
2022/01/26 15:44:28;;;;;;;9.52;4.20;;;2.60;99.90;;;;;;5124878;28;20396;-54